createdAt,value
2023-05-19T00:00:25.808Z,80.86
2023-05-19T00:01:25.765Z,80.82
2023-05-19T00:02:25.919Z,81.10
2023-05-19T00:03:25.747Z,81.14
2023-05-19T00:04:25.772Z,81.18
2023-05-19T00:05:25.724Z,81.63
2023-05-19T00:06:25.749Z,81.59
2023-05-19T00:07:25.689Z,81.51
2023-05-19T00:08:25.705Z,81.70
2023-05-19T00:09:25.627Z,81.64
2023-05-19T00:10:25.731Z,81.89
2023-05-19T00:11:25.641Z,81.99
2023-05-19T00:12:25.691Z,81.66
2023-05-19T00:13:25.612Z,81.53
2023-05-19T00:14:25.650Z,81.76
2023-05-19T00:15:25.563Z,82.44
2023-05-19T00:16:25.694Z,82.17
2023-05-19T00:17:25.538Z,81.87
2023-05-19T00:18:25.630Z,81.65
2023-05-19T00:19:25.598Z,81.62
2023-05-19T00:20:25.493Z,81.50
2023-05-19T00:21:25.474Z,81.41
2023-05-19T00:22:25.505Z,81.55
2023-05-19T00:23:25.460Z,81.73
2023-05-19T00:24:25.585Z,81.77
2023-05-19T00:25:25.424Z,81.65
2023-05-19T00:26:25.436Z,81.72
2023-05-19T00:27:25.406Z,81.75
2023-05-19T00:28:25.445Z,81.80
2023-05-19T00:29:25.377Z,81.90
2023-05-19T00:30:25.417Z,81.80
2023-05-19T00:31:25.396Z,81.78
2023-05-19T00:32:25.431Z,81.75
2023-05-19T00:33:25.309Z,81.82
2023-05-19T00:34:25.315Z,81.79
2023-05-19T00:35:25.277Z,81.96
2023-05-19T00:36:25.353Z,81.98
2023-05-19T00:37:25.269Z,81.91
2023-05-19T00:38:25.322Z,81.73
2023-05-19T00:39:25.238Z,81.80
2023-05-19T00:40:25.336Z,82.07
2023-05-19T00:41:25.255Z,82.43
2023-05-19T00:42:25.241Z,82.05
2023-05-19T00:43:25.208Z,81.90
2023-05-19T00:44:27.248Z,82.03
2023-05-19T00:45:25.170Z,82.05
2023-05-19T00:46:25.176Z,82.19
2023-05-19T00:47:25.182Z,82.31
2023-05-19T00:48:25.234Z,82.02
2023-05-19T00:49:25.107Z,81.81
2023-05-19T00:50:25.248Z,82.10
2023-05-19T00:51:25.080Z,82.00
2023-05-19T00:52:25.194Z,81.97
2023-05-19T00:53:25.065Z,82.13
2023-05-19T00:54:25.069Z,82.01
2023-05-19T00:55:25.010Z,82.11
2023-05-19T00:56:25.053Z,82.26
2023-05-19T00:57:25.022Z,82.32
2023-05-19T00:58:25.056Z,82.58
2023-05-19T00:59:24.979Z,82.74
2023-05-19T01:00:24.981Z,82.80
2023-05-19T01:01:24.983Z,82.76
2023-05-19T01:02:25.020Z,82.71
2023-05-19T01:03:25.046Z,82.55
2023-05-19T01:04:24.933Z,82.67
2023-05-19T01:05:24.900Z,82.67
2023-05-19T01:06:24.952Z,82.60
2023-05-19T01:07:24.868Z,82.70
2023-05-19T01:08:24.924Z,82.46
2023-05-19T01:09:24.848Z,82.45
2023-05-19T01:10:24.942Z,82.43
2023-05-19T01:11:24.824Z,82.42
2023-05-19T01:12:24.900Z,82.28
2023-05-19T01:13:24.795Z,82.31
2023-05-19T01:14:24.858Z,82.38
2023-05-19T01:15:24.760Z,82.47
2023-05-19T01:16:24.848Z,82.39
2023-05-19T01:17:24.786Z,82.17
2023-05-19T01:18:24.856Z,82.33
2023-05-19T01:19:24.794Z,82.47
2023-05-19T01:20:24.717Z,82.43
2023-05-19T01:21:24.692Z,82.52
2023-05-19T01:22:24.722Z,82.50
2023-05-19T01:23:24.665Z,82.42
2023-05-19T01:24:24.692Z,82.42
2023-05-19T01:25:24.624Z,82.43
2023-05-19T01:26:24.645Z,82.43
2023-05-19T01:27:24.612Z,82.42
2023-05-19T01:28:24.670Z,82.43
2023-05-19T01:29:24.582Z,82.60
2023-05-19T01:30:24.609Z,82.79
2023-05-19T01:31:24.582Z,82.70
2023-05-19T01:32:24.586Z,82.59
2023-05-19T01:33:24.511Z,82.57
2023-05-19T01:34:24.590Z,82.71
2023-05-19T01:35:24.484Z,82.59
2023-05-19T01:36:24.575Z,82.57
2023-05-19T01:37:24.476Z,82.40
2023-05-19T01:38:24.540Z,82.33
2023-05-19T01:39:24.441Z,82.28
2023-05-19T01:40:24.431Z,82.25
2023-05-19T01:41:24.400Z,82.20
2023-05-19T01:42:25.538Z,82.29
2023-05-19T01:43:24.375Z,82.23
2023-05-19T01:44:25.406Z,82.25
2023-05-19T01:45:24.363Z,82.29
2023-05-19T01:46:24.484Z,82.23
2023-05-19T01:47:24.339Z,82.07
2023-05-19T01:48:24.473Z,82.02
2023-05-19T01:49:24.308Z,82.21
2023-05-19T01:50:24.296Z,82.11
2023-05-19T01:51:24.272Z,82.24
2023-05-19T01:52:24.325Z,82.19
2023-05-19T01:53:24.248Z,82.43
2023-05-19T01:54:24.320Z,82.45
2023-05-19T01:55:24.232Z,82.38
2023-05-19T01:56:24.248Z,82.46
2023-05-19T01:57:24.203Z,82.45
2023-05-19T01:58:25.177Z,82.48
2023-05-19T01:59:24.181Z,82.29
2023-05-19T02:00:24.246Z,82.31
2023-05-19T02:01:24.177Z,82.38
2023-05-19T02:02:24.168Z,82.43
2023-05-19T02:03:24.112Z,82.45
2023-05-19T02:04:24.262Z,82.40
2023-05-19T02:05:24.086Z,82.46
2023-05-19T02:06:24.158Z,82.59
2023-05-19T02:07:24.060Z,82.55
2023-05-19T02:08:24.084Z,82.58
2023-05-19T02:09:24.048Z,82.59
2023-05-19T02:10:24.035Z,82.45
2023-05-19T02:11:24.024Z,82.32
2023-05-19T02:12:24.128Z,82.39
2023-05-19T02:13:24.018Z,82.27
2023-05-19T02:14:24.068Z,82.40
2023-05-19T02:15:23.958Z,82.37
2023-05-19T02:16:23.989Z,82.25
2023-05-19T02:17:23.932Z,82.24
2023-05-19T02:18:23.946Z,82.35
2023-05-19T02:19:24.132Z,82.44
2023-05-19T02:20:23.921Z,82.51
2023-05-19T02:21:23.855Z,82.57
2023-05-19T02:22:23.930Z,82.49
2023-05-19T02:23:23.860Z,82.31
2023-05-19T02:24:24.087Z,82.44
2023-05-19T02:25:23.826Z,82.39
2023-05-19T02:26:23.843Z,82.56
2023-05-19T02:27:23.782Z,82.40
2023-05-19T02:28:23.864Z,82.65
2023-05-19T02:29:23.768Z,82.78
2023-05-19T02:30:24.867Z,82.52
2023-05-19T02:31:23.789Z,82.61
2023-05-19T02:32:23.794Z,82.75
2023-05-19T02:33:23.727Z,82.65
2023-05-19T02:34:23.710Z,82.66
2023-05-19T02:35:23.666Z,82.80
2023-05-19T02:36:23.791Z,82.65
2023-05-19T02:37:23.687Z,83.00
2023-05-19T02:38:23.736Z,82.78
2023-05-19T02:39:23.630Z,82.64
2023-05-19T02:40:23.643Z,82.61
2023-05-19T02:41:23.600Z,82.46
2023-05-19T02:42:23.722Z,82.70
2023-05-19T02:43:23.572Z,82.95
2023-05-19T02:44:23.712Z,82.69
2023-05-19T02:45:23.571Z,82.53
2023-05-19T02:46:23.627Z,82.56
2023-05-19T02:47:23.537Z,82.83
2023-05-19T02:48:23.543Z,82.57
2023-05-19T02:49:23.497Z,82.47
2023-05-19T02:50:23.519Z,82.39
2023-05-19T02:51:23.477Z,82.68
2023-05-19T02:52:23.524Z,82.39
2023-05-19T02:53:23.445Z,82.63
2023-05-19T02:54:23.443Z,82.85
2023-05-19T02:55:23.433Z,82.71
2023-05-19T02:56:23.446Z,82.83
2023-05-19T02:57:23.386Z,83.13
2023-05-19T02:58:23.464Z,83.08
2023-05-19T02:59:25.495Z,83.38
2023-05-19T03:00:23.446Z,83.54
2023-05-19T03:01:23.383Z,83.13
2023-05-19T03:02:23.400Z,83.10
2023-05-19T03:03:23.437Z,83.15
2023-05-19T03:04:23.310Z,83.09
2023-05-19T03:05:23.322Z,83.25
2023-05-19T03:06:23.405Z,83.36
2023-05-19T03:07:23.242Z,83.51
2023-05-19T03:08:23.344Z,83.67
2023-05-19T03:09:23.225Z,84.08
2023-05-19T03:10:23.251Z,83.81
2023-05-19T03:11:23.290Z,83.62
2023-05-19T03:12:23.230Z,83.89
2023-05-19T03:13:23.153Z,84.10
2023-05-19T03:14:25.271Z,83.74
2023-05-19T03:15:23.144Z,84.05
2023-05-19T03:16:23.218Z,84.02
2023-05-19T03:17:23.176Z,83.83
2023-05-19T03:18:23.216Z,84.00
2023-05-19T03:19:23.140Z,84.03
2023-05-19T03:20:23.134Z,84.11
2023-05-19T03:21:23.071Z,84.19
2023-05-19T03:22:23.133Z,84.16
2023-05-19T03:23:23.053Z,84.21
2023-05-19T03:24:23.118Z,84.26
2023-05-19T03:25:23.007Z,84.14
2023-05-19T03:26:23.067Z,83.86
2023-05-19T03:27:22.995Z,83.96
2023-05-19T03:28:22.988Z,83.79
2023-05-19T03:29:22.986Z,83.53
2023-05-19T03:30:23.032Z,83.56
2023-05-19T03:31:22.945Z,83.53
2023-05-19T03:32:23.068Z,83.57
2023-05-19T03:33:23.195Z,83.50
2023-05-19T03:34:22.934Z,83.46
2023-05-19T03:35:22.857Z,83.35
2023-05-19T03:36:22.887Z,83.27
2023-05-19T03:37:22.835Z,83.29
2023-05-19T03:38:22.851Z,83.24
2023-05-19T03:39:22.854Z,83.20
2023-05-19T03:40:22.787Z,83.17
2023-05-19T03:41:22.789Z,83.49
2023-05-19T03:42:22.841Z,83.70
2023-05-19T03:43:22.755Z,84.04
2023-05-19T03:44:22.789Z,84.10
2023-05-19T03:45:22.745Z,84.05
2023-05-19T03:46:22.838Z,83.87
2023-05-19T03:47:22.708Z,83.78
2023-05-19T03:48:22.788Z,83.77
2023-05-19T03:49:22.679Z,83.43
2023-05-19T03:50:22.737Z,83.30
2023-05-19T03:51:22.641Z,83.20
2023-05-19T03:52:22.736Z,83.53
2023-05-19T03:53:22.629Z,83.88
2023-05-19T03:54:22.781Z,83.29
2023-05-19T03:55:22.578Z,82.88
2023-05-19T03:56:22.582Z,83.15
2023-05-19T03:57:22.562Z,83.30
2023-05-19T03:58:22.584Z,82.75
2023-05-19T03:59:22.530Z,82.76
2023-05-19T04:00:22.698Z,82.79
2023-05-19T04:01:22.516Z,82.78
2023-05-19T04:02:22.577Z,82.47
2023-05-19T04:03:22.688Z,82.42
2023-05-19T04:04:22.553Z,82.78
2023-05-19T04:05:22.459Z,82.84
2023-05-19T04:06:22.498Z,82.92
2023-05-19T04:07:22.446Z,82.82
2023-05-19T04:08:22.470Z,82.65
2023-05-19T04:09:22.392Z,82.83
2023-05-19T04:10:22.483Z,83.06
2023-05-19T04:11:22.370Z,82.99
2023-05-19T04:12:22.431Z,82.65
2023-05-19T04:13:22.352Z,82.45
2023-05-19T04:14:22.381Z,82.86
2023-05-19T04:15:22.296Z,82.70
2023-05-19T04:16:22.659Z,82.56
2023-05-19T04:17:22.452Z,82.89
2023-05-19T04:18:22.386Z,83.00
2023-05-19T04:19:22.431Z,82.56
2023-05-19T04:20:23.373Z,82.39
2023-05-19T04:21:22.247Z,82.15
2023-05-19T04:22:22.230Z,82.35
2023-05-19T04:23:22.205Z,82.48
2023-05-19T04:24:22.321Z,82.37
2023-05-19T04:25:22.164Z,82.58
2023-05-19T04:26:22.255Z,82.42
2023-05-19T04:27:22.138Z,82.47
2023-05-19T04:28:23.207Z,82.68
2023-05-19T04:29:22.126Z,82.33
2023-05-19T04:30:22.500Z,82.42
2023-05-19T04:31:22.179Z,81.98
2023-05-19T04:32:22.087Z,81.89
2023-05-19T04:33:22.073Z,81.90
2023-05-19T04:34:22.117Z,82.10
2023-05-19T04:35:22.015Z,82.04
2023-05-19T04:36:22.085Z,82.04
2023-05-19T04:37:22.078Z,82.11
2023-05-19T04:38:22.064Z,81.83
2023-05-19T04:39:21.991Z,81.76
2023-05-19T04:40:22.057Z,81.94
2023-05-19T04:41:22.000Z,81.43
2023-05-19T04:42:22.023Z,81.55
2023-05-19T04:43:21.958Z,81.54
2023-05-19T04:44:21.995Z,81.59
2023-05-19T04:45:21.929Z,81.27
2023-05-19T04:46:22.057Z,81.41
2023-05-19T04:47:21.898Z,81.13
2023-05-19T04:48:22.015Z,81.06
2023-05-19T04:49:21.823Z,80.88
2023-05-19T04:50:21.944Z,80.85
2023-05-19T04:51:21.819Z,80.90
2023-05-19T04:52:21.911Z,80.64
2023-05-19T04:53:21.803Z,80.77
2023-05-19T04:54:21.932Z,80.88
2023-05-19T04:55:21.952Z,81.38
2023-05-19T04:56:21.791Z,81.61
2023-05-19T04:57:21.738Z,80.78
2023-05-19T04:58:21.757Z,81.12
2023-05-19T04:59:21.721Z,80.89
2023-05-19T05:00:21.775Z,81.02
2023-05-19T05:01:21.704Z,81.34
2023-05-19T05:02:21.908Z,80.95
2023-05-19T05:03:21.806Z,81.12
2023-05-19T05:04:21.656Z,80.94
2023-05-19T05:05:21.635Z,81.38
2023-05-19T05:06:22.663Z,81.38
2023-05-19T05:07:21.602Z,81.06
2023-05-19T05:08:21.587Z,80.59
2023-05-19T05:09:21.558Z,80.50
2023-05-19T05:10:21.567Z,80.17
2023-05-19T05:11:21.543Z,80.43
2023-05-19T05:12:21.632Z,80.11
2023-05-19T05:13:21.509Z,80.06
2023-05-19T05:14:21.490Z,79.98
2023-05-19T05:15:21.479Z,80.43
2023-05-19T05:16:21.500Z,80.07
2023-05-19T05:17:21.471Z,80.63
2023-05-19T05:18:21.488Z,81.06
2023-05-19T05:19:21.462Z,80.80
2023-05-19T05:20:21.430Z,80.51
2023-05-19T05:21:21.387Z,79.94
2023-05-19T05:22:22.390Z,79.92
2023-05-19T05:23:21.485Z,79.97
2023-05-19T05:24:21.625Z,79.79
2023-05-19T05:25:21.328Z,80.00
2023-05-19T05:26:21.416Z,79.87
2023-05-19T05:27:21.381Z,79.46
2023-05-19T05:28:21.450Z,79.28
2023-05-19T05:29:21.347Z,79.78
2023-05-19T05:30:21.417Z,79.57
2023-05-19T05:31:21.426Z,79.34
2023-05-19T05:32:21.588Z,79.17
2023-05-19T05:33:21.471Z,78.97
2023-05-19T05:34:21.467Z,78.48
2023-05-19T05:35:21.311Z,78.22
2023-05-19T05:36:21.407Z,78.80
2023-05-19T05:37:21.303Z,79.73
2023-05-19T05:38:21.367Z,78.97
2023-05-19T05:39:21.281Z,79.19
2023-05-19T05:40:21.256Z,79.30
2023-05-19T05:41:21.252Z,78.93
2023-05-19T05:42:22.311Z,79.09
2023-05-19T05:43:21.227Z,79.36
2023-05-19T05:44:21.192Z,79.28
2023-05-19T05:45:21.064Z,78.91
2023-05-19T05:46:21.253Z,79.20
2023-05-19T05:47:21.053Z,79.48
2023-05-19T05:48:21.246Z,78.95
2023-05-19T05:49:21.021Z,78.84
2023-05-19T05:50:21.044Z,79.36
2023-05-19T05:51:21.005Z,79.82
2023-05-19T05:52:21.173Z,79.18
2023-05-19T05:53:20.979Z,78.70
2023-05-19T05:54:21.236Z,78.45
2023-05-19T05:55:21.180Z,79.01
2023-05-19T05:56:20.978Z,79.14
2023-05-19T05:57:20.905Z,77.92
2023-05-19T05:58:20.987Z,78.15
2023-05-19T05:59:20.903Z,77.66
2023-05-19T06:00:20.955Z,77.70
2023-05-19T06:01:21.055Z,77.96
2023-05-19T06:02:21.056Z,78.44
2023-05-19T06:03:20.944Z,79.07
2023-05-19T06:04:20.931Z,78.04
2023-05-19T06:05:20.861Z,77.64
2023-05-19T06:06:20.910Z,77.97
2023-05-19T06:07:20.808Z,78.11
2023-05-19T06:08:20.884Z,77.28
2023-05-19T06:09:20.762Z,77.27
2023-05-19T06:10:21.816Z,77.78
2023-05-19T06:11:20.733Z,76.79
2023-05-19T06:12:21.767Z,77.76
2023-05-19T06:13:20.701Z,77.36
2023-05-19T06:14:20.806Z,76.76
2023-05-19T06:15:20.672Z,77.58
2023-05-19T06:16:20.852Z,77.06
2023-05-19T06:17:20.655Z,76.80
2023-05-19T06:18:20.699Z,76.82
2023-05-19T06:19:20.650Z,76.73
2023-05-19T06:20:20.654Z,76.97
2023-05-19T06:21:20.626Z,77.56
2023-05-19T06:22:20.666Z,77.41
2023-05-19T06:23:20.599Z,77.18
2023-05-19T06:24:20.636Z,77.90
2023-05-19T06:25:20.571Z,77.53
2023-05-19T06:26:20.599Z,77.33
2023-05-19T06:27:20.529Z,77.29
2023-05-19T06:28:20.726Z,77.74
2023-05-19T06:29:20.503Z,77.88
2023-05-19T06:30:20.588Z,77.87
2023-05-19T06:31:20.491Z,77.47
2023-05-19T06:32:20.532Z,77.60
2023-05-19T06:33:20.420Z,76.91
2023-05-19T06:34:20.448Z,77.58
2023-05-19T06:35:20.498Z,77.51
2023-05-19T06:36:21.530Z,77.22
2023-05-19T06:37:20.368Z,77.68
2023-05-19T06:38:20.465Z,78.61
2023-05-19T06:39:20.343Z,78.57
2023-05-19T06:40:20.385Z,78.68
2023-05-19T06:41:20.328Z,77.00
2023-05-19T06:42:20.449Z,76.93
2023-05-19T06:43:20.283Z,77.20
2023-05-19T06:44:21.296Z,77.93
2023-05-19T06:45:20.282Z,77.36
2023-05-19T06:46:20.351Z,77.33
2023-05-19T06:47:20.263Z,76.00
2023-05-19T06:48:20.291Z,76.09
2023-05-19T06:49:20.208Z,76.76
2023-05-19T06:50:20.235Z,76.69
2023-05-19T06:51:20.168Z,76.14
2023-05-19T06:52:20.236Z,76.68
2023-05-19T06:53:20.156Z,76.52
2023-05-19T06:54:20.208Z,76.58
2023-05-19T06:55:20.145Z,76.28
2023-05-19T06:56:21.209Z,76.40
2023-05-19T06:57:20.085Z,77.30
2023-05-19T06:58:20.219Z,76.99
2023-05-19T06:59:20.065Z,77.55
2023-05-19T07:00:22.124Z,78.52
2023-05-19T07:01:20.085Z,77.32
2023-05-19T07:02:20.112Z,77.12
2023-05-19T07:03:20.056Z,77.18
2023-05-19T07:04:20.081Z,77.31
2023-05-19T07:05:19.991Z,76.35
2023-05-19T07:06:20.107Z,76.19
2023-05-19T07:07:19.964Z,75.73
2023-05-19T07:08:20.064Z,76.32
2023-05-19T07:09:19.936Z,76.71
2023-05-19T07:10:19.961Z,76.30
2023-05-19T07:11:19.915Z,77.06
2023-05-19T07:12:20.028Z,76.93
2023-05-19T07:13:19.886Z,76.51
2023-05-19T07:14:21.999Z,75.70
2023-05-19T07:15:19.848Z,75.61
2023-05-19T07:16:19.985Z,75.69
2023-05-19T07:17:19.834Z,76.13
2023-05-19T07:18:19.873Z,75.74
2023-05-19T07:19:19.915Z,75.56
2023-05-19T07:20:19.829Z,75.80
2023-05-19T07:21:19.778Z,76.19
2023-05-19T07:22:19.858Z,75.78
2023-05-19T07:23:19.756Z,76.18
2023-05-19T07:24:19.820Z,75.91
2023-05-19T07:25:19.744Z,75.79
2023-05-19T07:26:19.814Z,76.07
2023-05-19T07:27:19.686Z,77.18
2023-05-19T07:28:19.796Z,76.83
2023-05-19T07:29:19.684Z,76.68
2023-05-19T07:30:19.773Z,76.38
2023-05-19T07:31:19.641Z,75.64
2023-05-19T07:32:20.793Z,73.81
2023-05-19T07:33:19.613Z,74.83
2023-05-19T07:34:19.654Z,75.29
2023-05-19T07:35:19.637Z,75.50
2023-05-19T07:36:19.711Z,75.75
2023-05-19T07:37:19.562Z,76.68
2023-05-19T07:38:20.580Z,76.94
2023-05-19T07:39:19.570Z,74.97
2023-05-19T07:40:19.585Z,74.97
2023-05-19T07:41:19.696Z,75.13
2023-05-19T07:42:19.542Z,75.34
2023-05-19T07:43:19.589Z,72.68
2023-05-19T07:44:19.498Z,72.64
2023-05-19T07:45:19.455Z,72.64
2023-05-19T07:46:19.579Z,72.66
2023-05-19T07:47:19.446Z,70.57
2023-05-19T07:48:19.499Z,69.77
2023-05-19T07:49:19.390Z,70.63
2023-05-19T07:50:19.443Z,70.45
2023-05-19T07:51:19.420Z,71.42
2023-05-19T07:52:19.441Z,70.61
2023-05-19T07:53:19.342Z,70.97
2023-05-19T07:54:19.414Z,71.73
2023-05-19T07:55:19.303Z,71.14
2023-05-19T07:56:19.383Z,68.47
2023-05-19T07:57:19.276Z,68.83
2023-05-19T07:58:19.289Z,69.09
2023-05-19T07:59:19.245Z,66.88
2023-05-19T08:00:19.360Z,66.14
2023-05-19T08:01:19.222Z,67.17
2023-05-19T08:02:19.355Z,68.22
2023-05-19T08:03:19.382Z,70.35
2023-05-19T08:04:20.419Z,69.94
2023-05-19T08:05:19.178Z,70.05
2023-05-19T08:06:19.304Z,69.04
2023-05-19T08:07:19.164Z,68.40
2023-05-19T08:08:20.196Z,69.53
2023-05-19T08:09:19.139Z,70.13
2023-05-19T08:10:19.181Z,71.22
2023-05-19T08:11:19.084Z,71.73
2023-05-19T08:12:19.122Z,72.27
2023-05-19T08:13:19.072Z,70.71
2023-05-19T08:14:19.106Z,72.49
2023-05-19T08:15:19.047Z,72.56
2023-05-19T08:16:19.201Z,72.38
2023-05-19T08:17:19.029Z,72.09
2023-05-19T08:18:19.103Z,71.81
2023-05-19T08:19:19.057Z,72.07
2023-05-19T08:20:19.058Z,72.68
2023-05-19T08:21:19.273Z,73.77
2023-05-19T08:22:19.078Z,73.54
2023-05-19T08:23:18.945Z,73.21
2023-05-19T08:24:19.034Z,72.90
2023-05-19T08:25:18.911Z,71.64
2023-05-19T08:26:18.990Z,70.40
2023-05-19T08:27:18.927Z,71.22
2023-05-19T08:28:18.892Z,70.50
2023-05-19T08:29:18.864Z,70.95
2023-05-19T08:30:20.009Z,73.18
2023-05-19T08:31:18.851Z,73.41
2023-05-19T08:32:18.941Z,72.60
2023-05-19T08:33:18.819Z,73.21
2023-05-19T08:34:20.065Z,72.41
2023-05-19T08:35:18.901Z,72.38
2023-05-19T08:36:19.868Z,73.68
2023-05-19T08:37:18.736Z,72.78
2023-05-19T08:38:18.743Z,72.94
2023-05-19T08:39:18.725Z,72.59
2023-05-19T08:40:18.777Z,72.76
2023-05-19T08:41:18.710Z,72.31
2023-05-19T08:42:18.741Z,73.24
2023-05-19T08:43:18.669Z,73.25
2023-05-19T08:44:19.203Z,73.28
2023-05-19T08:45:18.649Z,73.03
2023-05-19T08:46:20.000Z,74.32
2023-05-19T08:47:18.829Z,73.88
2023-05-19T08:48:18.683Z,73.61
2023-05-19T08:49:18.610Z,72.76
2023-05-19T08:50:18.637Z,73.56
2023-05-19T08:51:18.762Z,73.27
2023-05-19T08:52:18.678Z,74.51
2023-05-19T08:53:32.382Z,74.71
2023-05-19T08:54:19.555Z,73.19
2023-05-19T08:55:18.573Z,72.75
2023-05-19T08:56:18.657Z,72.23
2023-05-19T08:57:18.758Z,73.29
2023-05-19T08:58:19.115Z,72.61
2023-05-19T08:59:18.617Z,73.19
2023-05-19T09:00:19.798Z,74.49
2023-05-19T09:01:18.710Z,73.01
2023-05-19T09:02:18.414Z,72.54
2023-05-19T09:03:23.672Z,73.61
2023-05-19T09:04:20.032Z,72.12
2023-05-19T09:05:24.685Z,72.24
2023-05-19T09:06:20.030Z,72.78
2023-05-19T09:07:19.560Z,72.72
2023-05-19T09:08:18.351Z,72.36
2023-05-19T09:09:18.366Z,73.87
2023-05-19T09:10:18.294Z,73.61
2023-05-19T09:11:18.386Z,74.44
2023-05-19T09:12:18.338Z,73.93
2023-05-19T09:13:18.348Z,74.18
2023-05-19T09:14:18.268Z,73.54
2023-05-19T09:15:18.390Z,73.21
2023-05-19T09:16:18.256Z,71.98
2023-05-19T09:17:18.225Z,70.98
2023-05-19T09:18:18.210Z,70.57
2023-05-19T09:19:18.307Z,72.17
2023-05-19T09:20:18.193Z,72.27
2023-05-19T09:21:18.290Z,71.43
2023-05-19T09:22:18.198Z,71.50
2023-05-19T09:23:18.183Z,71.04
2023-05-19T09:24:18.183Z,70.63
2023-05-19T09:25:19.204Z,70.92
2023-05-19T09:26:18.088Z,71.35
2023-05-19T09:27:18.312Z,70.79
2023-05-19T09:28:18.338Z,71.35
2023-05-19T09:29:18.131Z,71.62
2023-05-19T09:30:18.049Z,72.96
2023-05-19T09:31:18.127Z,73.40
2023-05-19T09:32:18.045Z,73.03
2023-05-19T09:33:18.065Z,72.22
2023-05-19T09:34:17.977Z,71.36
2023-05-19T09:35:39.108Z,71.31
2023-05-19T09:36:17.956Z,71.47
2023-05-19T09:37:17.970Z,71.55
2023-05-19T09:38:17.928Z,71.15
2023-05-19T09:39:17.976Z,71.90
2023-05-19T09:40:17.952Z,71.55
2023-05-19T09:41:17.965Z,72.28
2023-05-19T09:42:17.867Z,69.67
2023-05-19T09:43:17.900Z,69.75
2023-05-19T09:44:17.849Z,70.72
2023-05-19T09:45:17.916Z,71.29
2023-05-19T09:46:17.825Z,70.64
2023-05-19T09:47:17.905Z,70.95
2023-05-19T09:48:17.792Z,71.00
2023-05-19T09:49:17.855Z,69.55
2023-05-19T09:50:17.824Z,71.17
2023-05-19T09:51:17.776Z,71.14
2023-05-19T09:52:17.745Z,70.20
2023-05-19T09:53:18.844Z,70.10
2023-05-19T09:54:17.705Z,69.85
2023-05-19T09:55:17.791Z,70.79
2023-05-19T09:56:17.692Z,71.05
2023-05-19T09:57:17.692Z,71.42
2023-05-19T09:58:17.666Z,71.34
2023-05-19T09:59:17.767Z,70.89
2023-05-19T10:00:17.747Z,70.15
2023-05-19T10:01:17.756Z,70.93
2023-05-19T10:02:17.614Z,71.46
2023-05-19T10:03:17.638Z,70.74
2023-05-19T10:04:17.585Z,70.87
2023-05-19T10:05:17.879Z,70.42
2023-05-19T10:06:17.549Z,69.43
2023-05-19T10:07:17.593Z,71.24
2023-05-19T10:08:17.521Z,70.37
2023-05-19T10:09:17.580Z,69.62
2023-05-19T10:10:17.584Z,71.20
2023-05-19T10:11:18.590Z,70.88
2023-05-19T10:12:17.478Z,69.93
2023-05-19T10:13:17.516Z,70.38
2023-05-19T10:14:17.440Z,71.49
2023-05-19T10:15:17.523Z,68.95
2023-05-19T10:16:17.419Z,71.57
2023-05-19T10:17:17.986Z,70.18
2023-05-19T10:18:19.918Z,69.11
2023-05-19T10:19:17.406Z,70.22
2023-05-19T10:20:17.450Z,70.84
2023-05-19T10:21:17.345Z,70.03
2023-05-19T10:22:17.390Z,71.91
2023-05-19T10:23:17.350Z,72.78
2023-05-19T10:24:18.413Z,71.96
2023-05-19T10:25:17.307Z,70.29
2023-05-19T10:26:17.312Z,67.83
2023-05-19T10:27:17.281Z,69.65
2023-05-19T10:28:17.334Z,66.96
2023-05-19T10:29:17.287Z,68.23
2023-05-19T10:30:17.469Z,68.49
2023-05-19T10:31:17.221Z,68.79
2023-05-19T10:32:17.252Z,69.41
2023-05-19T10:33:17.289Z,68.09
2023-05-19T10:34:17.261Z,69.21
2023-05-19T10:35:17.203Z,68.94
2023-05-19T10:36:18.208Z,69.56
2023-05-19T10:37:17.118Z,69.31
2023-05-19T10:38:17.282Z,69.11
2023-05-19T10:39:17.172Z,69.58
2023-05-19T10:40:17.524Z,69.67
2023-05-19T10:41:17.119Z,68.99
2023-05-19T10:42:17.113Z,68.33
2023-05-19T10:43:17.060Z,70.87
2023-05-19T10:44:17.127Z,70.83
2023-05-19T10:45:17.019Z,70.67
2023-05-19T10:46:17.051Z,68.84
2023-05-19T10:47:17.123Z,69.98
2023-05-19T10:48:17.184Z,70.42
2023-05-19T10:49:16.964Z,68.53
2023-05-19T10:50:17.053Z,69.59
2023-05-19T10:51:16.940Z,69.33
2023-05-19T10:52:16.987Z,67.88
2023-05-19T10:53:16.950Z,69.13
2023-05-19T10:54:16.985Z,68.91
2023-05-19T10:55:16.890Z,68.24
2023-05-19T10:56:17.017Z,70.39
2023-05-19T10:57:16.873Z,68.79
2023-05-19T10:58:16.933Z,67.19
2023-05-19T10:59:16.877Z,68.32
2023-05-19T11:00:16.933Z,69.08
2023-05-19T11:01:16.840Z,70.41
2023-05-19T11:02:16.982Z,69.25
2023-05-19T11:03:16.811Z,68.00
2023-05-19T11:04:16.906Z,67.41
2023-05-19T11:05:16.847Z,67.10
2023-05-19T11:06:16.774Z,66.48
2023-05-19T11:07:16.793Z,68.16
2023-05-19T11:08:16.787Z,69.18
2023-05-19T11:09:16.696Z,69.79
2023-05-19T11:10:16.822Z,69.12
2023-05-19T11:11:16.701Z,69.64
2023-05-19T11:12:16.715Z,67.82
2023-05-19T11:13:16.728Z,67.58
2023-05-19T11:14:16.740Z,69.62
2023-05-19T11:15:16.847Z,69.30
2023-05-19T11:16:16.746Z,69.57
2023-05-19T11:17:16.621Z,70.12
2023-05-19T11:18:16.761Z,71.69
2023-05-19T11:19:16.627Z,71.14
2023-05-19T11:20:16.566Z,68.50
2023-05-19T11:21:16.580Z,66.56
2023-05-19T11:22:16.607Z,66.25
2023-05-19T11:23:16.549Z,68.16
2023-05-19T11:24:16.602Z,67.72
2023-05-19T11:25:16.494Z,66.89
2023-05-19T11:26:16.519Z,66.49
2023-05-19T11:27:16.451Z,66.37
2023-05-19T11:28:16.531Z,67.01
2023-05-19T11:29:16.442Z,65.64
2023-05-19T11:30:16.427Z,66.59
2023-05-19T11:31:16.393Z,68.28
2023-05-19T11:32:16.590Z,68.45
2023-05-19T11:33:16.382Z,70.13
2023-05-19T11:34:16.470Z,70.34
2023-05-19T11:35:16.361Z,69.20
2023-05-19T11:36:16.392Z,67.62
2023-05-19T11:37:16.323Z,67.73
2023-05-19T11:38:16.396Z,67.83
2023-05-19T11:39:16.290Z,69.35
2023-05-19T11:40:16.298Z,68.11
2023-05-19T11:41:16.895Z,67.26
2023-05-19T11:42:16.321Z,67.50
2023-05-19T11:43:16.242Z,66.64
2023-05-19T11:44:16.327Z,66.51
2023-05-19T11:45:16.222Z,68.00
2023-05-19T11:46:17.272Z,67.36
2023-05-19T11:47:16.208Z,68.12
2023-05-19T11:48:16.303Z,68.50
2023-05-19T11:49:16.164Z,67.71
2023-05-19T11:50:16.196Z,65.95
2023-05-19T11:51:16.143Z,67.19
2023-05-19T11:52:16.288Z,66.44
2023-05-19T11:53:16.124Z,67.26
2023-05-19T11:54:18.209Z,66.46
2023-05-19T11:55:16.112Z,68.92
2023-05-19T11:56:16.121Z,67.47
2023-05-19T11:57:16.185Z,68.43
2023-05-19T11:58:16.165Z,67.27
2023-05-19T11:59:16.037Z,67.33
2023-05-19T12:00:16.035Z,66.34
2023-05-19T12:01:15.993Z,65.11
2023-05-19T12:02:16.082Z,64.83
2023-05-19T12:03:16.204Z,65.38
2023-05-19T12:04:16.060Z,66.66
2023-05-19T12:05:16.070Z,65.43
2023-05-19T12:06:16.020Z,64.33
2023-05-19T12:07:15.903Z,63.98
2023-05-19T12:08:16.000Z,64.14
2023-05-19T12:09:15.898Z,66.06
2023-05-19T12:10:15.952Z,66.79
2023-05-19T12:11:17.474Z,64.32
2023-05-19T12:12:15.921Z,66.04
2023-05-19T12:13:15.834Z,65.14
2023-05-19T12:14:15.943Z,66.39
2023-05-19T12:15:15.853Z,64.53
2023-05-19T12:16:15.875Z,65.22
2023-05-19T12:17:15.804Z,65.30
2023-05-19T12:18:16.909Z,65.90
2023-05-19T12:19:15.773Z,64.66
2023-05-19T12:20:15.769Z,66.77
2023-05-19T12:21:15.728Z,66.12
2023-05-19T12:22:15.784Z,65.85
2023-05-19T12:23:15.724Z,64.66
2023-05-19T12:24:15.801Z,64.98
2023-05-19T12:25:15.686Z,65.01
2023-05-19T12:26:15.716Z,65.44
2023-05-19T12:27:15.645Z,65.03
2023-05-19T12:28:15.737Z,64.48
2023-05-19T12:29:15.644Z,64.84
2023-05-19T12:30:15.676Z,65.91
2023-05-19T12:31:15.669Z,64.49
2023-05-19T12:32:16.686Z,64.58
2023-05-19T12:33:15.629Z,64.22
2023-05-19T12:34:15.676Z,63.44
2023-05-19T12:35:15.605Z,63.10
2023-05-19T12:36:15.578Z,65.33
2023-05-19T12:37:15.508Z,63.28
2023-05-19T12:38:15.589Z,65.20
2023-05-19T12:39:15.505Z,64.39
2023-05-19T12:40:15.528Z,63.67
2023-05-19T12:41:15.519Z,66.30
2023-05-19T12:42:15.524Z,62.24
2023-05-19T12:43:15.426Z,62.47
2023-05-19T12:44:15.472Z,63.33
2023-05-19T12:45:15.414Z,64.21
2023-05-19T12:46:15.484Z,64.02
2023-05-19T12:47:15.395Z,62.92
2023-05-19T12:48:15.517Z,61.77
2023-05-19T12:49:15.350Z,60.75
2023-05-19T12:50:15.381Z,61.40
2023-05-19T12:51:15.335Z,62.15
2023-05-19T12:52:15.387Z,63.46